sensor_id;sensor_type;location;lat;lon;timestamp;P1;durP1;ratioP1;P2;durP2;ratioP2
59054;SDS011;44845;51.444;7.460;2023-05-14T00:00:57;10.73;;;7.68;;
59054;SDS011;44845;51.444;7.460;2023-05-14T00:03:23;8.43;;;7.40;;
59054;SDS011;44845;51.444;7.460;2023-05-14T00:05:48;11.80;;;7.63;;
59054;SDS011;44845;51.444;7.460;2023-05-14T00:08:13;9.27;;;7.65;;
59054;SDS011;44845;51.444;7.460;2023-05-14T00:10:39;12.38;;;7.35;;
59054;SDS011;44845;51.444;7.460;2023-05-14T00:13:04;13.77;;;7.72;;
59054;SDS011;44845;51.444;7.460;2023-05-14T00:15:29;9.15;;;7.40;;
59054;SDS011;44845;51.444;7.460;2023-05-14T00:17:55;10.23;;;7.10;;
59054;SDS011;44845;51.444;7.460;2023-05-14T00:20:20;10.93;;;7.22;;
59054;SDS011;44845;51.444;7.460;2023-05-14T00:22:45;10.73;;;6.88;;
59054;SDS011;44845;51.444;7.460;2023-05-14T00:25:11;7.65;;;6.50;;
59054;SDS011;44845;51.444;7.460;2023-05-14T00:27:36;8.63;;;6.90;;
59054;SDS011;44845;51.444;7.460;2023-05-14T00:30:03;10.05;;;7.05;;
59054;SDS011;44845;51.444;7.460;2023-05-14T00:32:30;7.95;;;6.78;;
59054;SDS011;44845;51.444;7.460;2023-05-14T00:34:55;8.18;;;6.80;;
59054;SDS011;44845;51.444;7.460;2023-05-14T00:37:20;8.90;;;6.60;;
59054;SDS011;44845;51.444;7.460;2023-05-14T00:39:48;10.77;;;6.72;;
59054;SDS011;44845;51.444;7.460;2023-05-14T00:42:13;13.32;;;6.93;;
59054;SDS011;44845;51.444;7.460;2023-05-14T00:44:39;8.07;;;6.13;;
59054;SDS011;44845;51.444;7.460;2023-05-14T00:47:04;7.15;;;6.43;;
59054;SDS011;44845;51.444;7.460;2023-05-14T00:49:30;6.68;;;5.80;;
59054;SDS011;44845;51.444;7.460;2023-05-14T00:51:55;12.63;;;6.38;;
59054;SDS011;44845;51.444;7.460;2023-05-14T00:54:23;8.07;;;6.10;;
59054;SDS011;44845;51.444;7.460;2023-05-14T00:56:48;10.75;;;6.00;;
59054;SDS011;44845;51.444;7.460;2023-05-14T00:59:17;6.90;;;5.80;;
59054;SDS011;44845;51.444;7.460;2023-05-14T01:01:42;12.75;;;5.70;;
59054;SDS011;44845;51.444;7.460;2023-05-14T01:04:07;10.07;;;5.70;;
59054;SDS011;44845;51.444;7.460;2023-05-14T01:09:39;5.85;;;5.28;;
59054;SDS011;44845;51.444;7.460;2023-05-14T01:12:16;5.93;;;5.28;;
59054;SDS011;44845;51.444;7.460;2023-05-14T01:14:53;6.57;;;5.80;;
59054;SDS011;44845;51.444;7.460;2023-05-14T01:17:56;6.40;;;5.03;;
59054;SDS011;44845;51.444;7.460;2023-05-14T01:20:25;6.68;;;5.47;;
59054;SDS011;44845;51.444;7.460;2023-05-14T01:22:51;7.47;;;5.63;;
59054;SDS011;44845;51.444;7.460;2023-05-14T01:25:16;8.15;;;5.50;;
59054;SDS011;44845;51.444;7.460;2023-05-14T01:27:48;7.60;;;5.18;;
59054;SDS011;44845;51.444;7.460;2023-05-14T01:32:52;8.93;;;5.45;;
59054;SDS011;44845;51.444;7.460;2023-05-14T01:35:21;6.35;;;5.72;;
59054;SDS011;44845;51.444;7.460;2023-05-14T01:37:49;7.90;;;5.32;;
59054;SDS011;44845;51.444;7.460;2023-05-14T01:40:17;13.27;;;5.97;;
59054;SDS011;44845;51.444;7.460;2023-05-14T01:42:43;8.52;;;5.85;;
59054;SDS011;44845;51.444;7.460;2023-05-14T01:45:09;8.35;;;5.65;;
59054;SDS011;44845;51.444;7.460;2023-05-14T01:47:34;7.68;;;4.90;;
59054;SDS011;44845;51.444;7.460;2023-05-14T01:50:00;9.10;;;5.35;;
59054;SDS011;44845;51.444;7.460;2023-05-14T01:52:25;6.70;;;5.60;;
59054;SDS011;44845;51.444;7.460;2023-05-14T01:54:51;6.80;;;5.22;;
59054;SDS011;44845;51.444;7.460;2023-05-14T01:57:16;15.15;;;6.05;;
59054;SDS011;44845;51.444;7.460;2023-05-14T01:59:41;8.25;;;5.60;;
59054;SDS011;44845;51.444;7.460;2023-05-14T02:02:07;9.00;;;5.50;;
59054;SDS011;44845;51.444;7.460;2023-05-14T02:04:32;9.25;;;5.57;;
59054;SDS011;44845;51.444;7.460;2023-05-14T02:06:57;7.22;;;5.30;;
59054;SDS011;44845;51.444;7.460;2023-05-14T02:09:23;14.50;;;5.88;;
59054;SDS011;44845;51.444;7.460;2023-05-14T02:11:48;9.13;;;5.63;;
59054;SDS011;44845;51.444;7.460;2023-05-14T02:14:14;10.43;;;5.63;;
59054;SDS011;44845;51.444;7.460;2023-05-14T02:16:39;5.90;;;5.30;;
59054;SDS011;44845;51.444;7.460;2023-05-14T02:19:05;7.90;;;5.65;;
59054;SDS011;44845;51.444;7.460;2023-05-14T02:21:31;8.00;;;5.28;;
59054;SDS011;44845;51.444;7.460;2023-05-14T02:23:56;5.90;;;5.07;;
59054;SDS011;44845;51.444;7.460;2023-05-14T02:26:21;8.18;;;5.13;;
59054;SDS011;44845;51.444;7.460;2023-05-14T02:28:47;7.00;;;5.20;;
59054;SDS011;44845;51.444;7.460;2023-05-14T02:31:12;9.63;;;5.13;;
59054;SDS011;44845;51.444;7.460;2023-05-14T02:33:38;10.02;;;5.28;;
59054;SDS011;44845;51.444;7.460;2023-05-14T02:36:03;8.98;;;5.10;;
59054;SDS011;44845;51.444;7.460;2023-05-14T02:38:29;5.95;;;5.30;;
59054;SDS011;44845;51.444;7.460;2023-05-14T02:40:54;8.05;;;5.22;;
59054;SDS011;44845;51.444;7.460;2023-05-14T02:43:20;8.52;;;5.55;;
59054;SDS011;44845;51.444;7.460;2023-05-14T02:45:45;6.45;;;5.43;;
59054;SDS011;44845;51.444;7.460;2023-05-14T02:48:11;11.10;;;5.72;;
59054;SDS011;44845;51.444;7.460;2023-05-14T02:50:36;6.28;;;5.32;;
59054;SDS011;44845;51.444;7.460;2023-05-14T02:53:01;18.95;;;5.20;;
59054;SDS011;44845;51.444;7.460;2023-05-14T02:55:27;6.13;;;4.80;;
59054;SDS011;44845;51.444;7.460;2023-05-14T02:57:52;9.48;;;5.45;;
59054;SDS011;44845;51.444;7.460;2023-05-14T03:00:18;8.35;;;5.00;;
59054;SDS011;44845;51.444;7.460;2023-05-14T03:02:43;5.82;;;5.10;;
59054;SDS011;44845;51.444;7.460;2023-05-14T03:05:09;6.18;;;5.03;;
59054;SDS011;44845;51.444;7.460;2023-05-14T03:07:34;8.85;;;5.70;;
59054;SDS011;44845;51.444;7.460;2023-05-14T03:10:00;6.15;;;5.50;;
59054;SDS011;44845;51.444;7.460;2023-05-14T03:12:25;6.68;;;5.35;;
59054;SDS011;44845;51.444;7.460;2023-05-14T03:14:51;7.90;;;5.25;;
59054;SDS011;44845;51.444;7.460;2023-05-14T03:17:16;7.60;;;5.32;;
59054;SDS011;44845;51.444;7.460;2023-05-14T03:19:41;6.60;;;5.32;;
59054;SDS011;44845;51.444;7.460;2023-05-14T03:22:07;7.13;;;5.88;;
59054;SDS011;44845;51.444;7.460;2023-05-14T03:24:33;6.20;;;5.25;;
59054;SDS011;44845;51.444;7.460;2023-05-14T03:26:58;11.85;;;5.35;;
59054;SDS011;44845;51.444;7.460;2023-05-14T03:29:24;10.00;;;5.80;;
59054;SDS011;44845;51.444;7.460;2023-05-14T03:31:49;7.72;;;5.28;;
59054;SDS011;44845;51.444;7.460;2023-05-14T03:34:15;6.65;;;5.95;;
59054;SDS011;44845;51.444;7.460;2023-05-14T03:36:40;7.68;;;6.43;;
59054;SDS011;44845;51.444;7.460;2023-05-14T03:39:06;8.15;;;5.57;;
59054;SDS011;44845;51.444;7.460;2023-05-14T03:41:31;6.43;;;5.53;;
59054;SDS011;44845;51.444;7.460;2023-05-14T03:43:57;12.25;;;6.70;;
59054;SDS011;44845;51.444;7.460;2023-05-14T03:46:22;8.00;;;5.95;;
59054;SDS011;44845;51.444;7.460;2023-05-14T03:48:47;6.40;;;5.75;;
59054;SDS011;44845;51.444;7.460;2023-05-14T03:51:13;6.40;;;5.78;;
59054;SDS011;44845;51.444;7.460;2023-05-14T03:53:38;6.97;;;5.75;;
59054;SDS011;44845;51.444;7.460;2023-05-14T03:56:03;6.72;;;5.38;;
59054;SDS011;44845;51.444;7.460;2023-05-14T03:58:29;6.45;;;5.85;;
59054;SDS011;44845;51.444;7.460;2023-05-14T04:00:54;8.13;;;6.18;;
59054;SDS011;44845;51.444;7.460;2023-05-14T04:03:20;7.93;;;6.90;;
59054;SDS011;44845;51.444;7.460;2023-05-14T04:05:45;6.25;;;5.65;;
59054;SDS011;44845;51.444;7.460;2023-05-14T04:08:11;7.72;;;5.85;;
59054;SDS011;44845;51.444;7.460;2023-05-14T04:10:36;12.07;;;5.68;;
59054;SDS011;44845;51.444;7.460;2023-05-14T04:13:01;7.53;;;5.47;;
59054;SDS011;44845;51.444;7.460;2023-05-14T04:15:27;9.05;;;5.85;;
59054;SDS011;44845;51.444;7.460;2023-05-14T04:17:52;9.00;;;6.07;;
59054;SDS011;44845;51.444;7.460;2023-05-14T04:20:17;6.28;;;5.68;;
59054;SDS011;44845;51.444;7.460;2023-05-14T04:22:43;8.55;;;5.47;;
59054;SDS011;44845;51.444;7.460;2023-05-14T04:25:08;6.78;;;5.30;;
59054;SDS011;44845;51.444;7.460;2023-05-14T04:27:33;7.18;;;5.47;;
59054;SDS011;44845;51.444;7.460;2023-05-14T04:29:59;6.90;;;5.53;;
59054;SDS011;44845;51.444;7.460;2023-05-14T04:32:25;6.68;;;5.97;;
59054;SDS011;44845;51.444;7.460;2023-05-14T04:34:50;7.40;;;5.40;;
59054;SDS011;44845;51.444;7.460;2023-05-14T04:37:16;7.93;;;6.22;;
59054;SDS011;44845;51.444;7.460;2023-05-14T04:39:41;6.40;;;5.80;;
59054;SDS011;44845;51.444;7.460;2023-05-14T04:42:07;6.68;;;5.80;;
59054;SDS011;44845;51.444;7.460;2023-05-14T04:44:33;6.30;;;5.70;;
59054;SDS011;44845;51.444;7.460;2023-05-14T04:47:00;8.20;;;6.20;;
59054;SDS011;44845;51.444;7.460;2023-05-14T04:49:26;9.32;;;6.03;;
59054;SDS011;44845;51.444;7.460;2023-05-14T04:51:51;8.50;;;5.72;;
59054;SDS011;44845;51.444;7.460;2023-05-14T04:54:16;8.05;;;5.93;;
59054;SDS011;44845;51.444;7.460;2023-05-14T04:56:42;9.13;;;5.97;;
59054;SDS011;44845;51.444;7.460;2023-05-14T04:59:07;7.93;;;6.45;;
59054;SDS011;44845;51.444;7.460;2023-05-14T05:01:33;7.90;;;6.10;;
59054;SDS011;44845;51.444;7.460;2023-05-14T05:03:58;6.95;;;6.25;;
59054;SDS011;44845;51.444;7.460;2023-05-14T05:06:23;8.80;;;5.95;;
59054;SDS011;44845;51.444;7.460;2023-05-14T05:08:49;7.70;;;5.90;;
59054;SDS011;44845;51.444;7.460;2023-05-14T05:11:14;9.77;;;5.63;;
59054;SDS011;44845;51.444;7.460;2023-05-14T05:13:39;7.63;;;5.78;;
59054;SDS011;44845;51.444;7.460;2023-05-14T05:16:05;7.30;;;5.55;;
59054;SDS011;44845;51.444;7.460;2023-05-14T05:18:30;8.02;;;5.30;;
59054;SDS011;44845;51.444;7.460;2023-05-14T05:20:56;8.85;;;5.30;;
59054;SDS011;44845;51.444;7.460;2023-05-14T05:23:21;8.43;;;6.00;;
59054;SDS011;44845;51.444;7.460;2023-05-14T05:25:47;9.75;;;5.40;;
59054;SDS011;44845;51.444;7.460;2023-05-14T05:28:14;6.50;;;5.70;;
59054;SDS011;44845;51.444;7.460;2023-05-14T05:30:40;9.77;;;5.40;;
59054;SDS011;44845;51.444;7.460;2023-05-14T05:33:05;5.80;;;4.93;;
59054;SDS011;44845;51.444;7.460;2023-05-14T05:35:30;5.55;;;4.93;;
59054;SDS011;44845;51.444;7.460;2023-05-14T05:37:56;6.10;;;5.03;;
59054;SDS011;44845;51.444;7.460;2023-05-14T05:40:21;7.80;;;5.20;;
59054;SDS011;44845;51.444;7.460;2023-05-14T05:42:47;6.00;;;5.40;;
59054;SDS011;44845;51.444;7.460;2023-05-14T05:45:12;10.75;;;5.38;;
59054;SDS011;44845;51.444;7.460;2023-05-14T05:47:37;7.40;;;5.45;;
59054;SDS011;44845;51.444;7.460;2023-05-14T05:50:03;6.35;;;5.75;;
59054;SDS011;44845;51.444;7.460;2023-05-14T05:52:29;8.43;;;5.28;;
59054;SDS011;44845;51.444;7.460;2023-05-14T05:54:54;8.52;;;5.68;;
59054;SDS011;44845;51.444;7.460;2023-05-14T05:57:20;8.05;;;4.97;;
59054;SDS011;44845;51.444;7.460;2023-05-14T05:59:46;7.00;;;5.40;;
59054;SDS011;44845;51.444;7.460;2023-05-14T06:02:11;6.82;;;4.95;;
59054;SDS011;44845;51.444;7.460;2023-05-14T06:04:36;9.10;;;5.43;;
59054;SDS011;44845;51.444;7.460;2023-05-14T06:07:02;7.13;;;4.97;;
59054;SDS011;44845;51.444;7.460;2023-05-14T06:09:27;6.18;;;4.95;;
59054;SDS011;44845;51.444;7.460;2023-05-14T06:11:52;6.88;;;4.85;;
59054;SDS011;44845;51.444;7.460;2023-05-14T06:14:18;9.63;;;5.45;;
59054;SDS011;44845;51.444;7.460;2023-05-14T06:16:43;6.75;;;5.55;;
59054;SDS011;44845;51.444;7.460;2023-05-14T06:19:08;6.03;;;5.43;;
59054;SDS011;44845;51.444;7.460;2023-05-14T06:21:34;8.00;;;5.72;;
59054;SDS011;44845;51.444;7.460;2023-05-14T06:24:00;8.57;;;5.68;;
59054;SDS011;44845;51.444;7.460;2023-05-14T06:26:25;10.48;;;5.55;;
59054;SDS011;44845;51.444;7.460;2023-05-14T06:28:51;11.48;;;5.45;;
59054;SDS011;44845;51.444;7.460;2023-05-14T06:31:17;12.75;;;5.28;;
59054;SDS011;44845;51.444;7.460;2023-05-14T06:33:42;16.55;;;4.85;;
59054;SDS011;44845;51.444;7.460;2023-05-14T06:36:09;10.85;;;4.72;;
59054;SDS011;44845;51.444;7.460;2023-05-14T06:38:34;8.43;;;4.45;;
59054;SDS011;44845;51.444;7.460;2023-05-14T06:41:00;9.35;;;4.63;;
59054;SDS011;44845;51.444;7.460;2023-05-14T06:43:25;6.43;;;4.05;;
59054;SDS011;44845;51.444;7.460;2023-05-14T06:45:50;10.88;;;4.55;;
59054;SDS011;44845;51.444;7.460;2023-05-14T06:48:16;8.82;;;4.03;;
59054;SDS011;44845;51.444;7.460;2023-05-14T06:50:45;4.68;;;2.72;;
59054;SDS011;44845;51.444;7.460;2023-05-14T06:53:12;5.95;;;2.70;;
59054;SDS011;44845;51.444;7.460;2023-05-14T06:55:37;4.80;;;2.72;;
59054;SDS011;44845;51.444;7.460;2023-05-14T06:58:05;4.07;;;2.78;;
59054;SDS011;44845;51.444;7.460;2023-05-14T07:00:31;3.88;;;3.47;;
59054;SDS011;44845;51.444;7.460;2023-05-14T07:02:56;6.88;;;3.40;;
59054;SDS011;44845;51.444;7.460;2023-05-14T07:05:21;4.93;;;3.03;;
59054;SDS011;44845;51.444;7.460;2023-05-14T07:07:47;5.03;;;2.88;;
59054;SDS011;44845;51.444;7.460;2023-05-14T07:10:12;6.40;;;3.20;;
59054;SDS011;44845;51.444;7.460;2023-05-14T07:12:37;7.75;;;2.50;;
59054;SDS011;44845;51.444;7.460;2023-05-14T07:15:03;5.63;;;2.95;;
59054;SDS011;44845;51.444;7.460;2023-05-14T07:17:28;4.55;;;2.80;;
59054;SDS011;44845;51.444;7.460;2023-05-14T07:19:54;3.92;;;2.92;;
59054;SDS011;44845;51.444;7.460;2023-05-14T07:22:20;5.88;;;2.92;;
59054;SDS011;44845;51.444;7.460;2023-05-14T07:24:45;4.32;;;3.08;;
59054;SDS011;44845;51.444;7.460;2023-05-14T07:27:11;4.25;;;2.58;;
59054;SDS011;44845;51.444;7.460;2023-05-14T07:29:36;2.70;;;2.50;;
59054;SDS011;44845;51.444;7.460;2023-05-14T07:32:02;3.25;;;2.60;;
59054;SDS011;44845;51.444;7.460;2023-05-14T07:34:27;2.85;;;2.28;;
59054;SDS011;44845;51.444;7.460;2023-05-14T07:36:53;3.90;;;2.10;;
59054;SDS011;44845;51.444;7.460;2023-05-14T07:39:18;2.30;;;2.10;;
59054;SDS011;44845;51.444;7.460;2023-05-14T07:41:44;2.30;;;2.08;;
59054;SDS011;44845;51.444;7.460;2023-05-14T07:44:09;2.50;;;2.30;;
59054;SDS011;44845;51.444;7.460;2023-05-14T07:46:37;2.72;;;2.05;;
59054;SDS011;44845;51.444;7.460;2023-05-14T07:49:02;2.88;;;2.40;;
59054;SDS011;44845;51.444;7.460;2023-05-14T07:51:28;2.25;;;1.95;;
59054;SDS011;44845;51.444;7.460;2023-05-14T07:53:53;2.58;;;2.10;;
59054;SDS011;44845;51.444;7.460;2023-05-14T07:56:20;2.97;;;2.05;;
59054;SDS011;44845;51.444;7.460;2023-05-14T07:58:46;1.70;;;1.60;;
59054;SDS011;44845;51.444;7.460;2023-05-14T08:01:11;2.45;;;2.20;;
59054;SDS011;44845;51.444;7.460;2023-05-14T08:03:37;2.38;;;2.10;;
59054;SDS011;44845;51.444;7.460;2023-05-14T08:06:02;1.92;;;1.83;;
59054;SDS011;44845;51.444;7.460;2023-05-14T08:08:28;2.95;;;1.83;;
59054;SDS011;44845;51.444;7.460;2023-05-14T08:10:53;4.35;;;1.90;;
59054;SDS011;44845;51.444;7.460;2023-05-14T08:13:19;1.77;;;1.67;;
59054;SDS011;44845;51.444;7.460;2023-05-14T08:15:44;1.90;;;1.80;;
59054;SDS011;44845;51.444;7.460;2023-05-14T08:18:10;2.03;;;1.77;;
59054;SDS011;44845;51.444;7.460;2023-05-14T08:20:35;3.13;;;2.05;;
59054;SDS011;44845;51.444;7.460;2023-05-14T08:23:01;2.00;;;1.67;;
59054;SDS011;44845;51.444;7.460;2023-05-14T08:25:26;2.90;;;1.40;;
59054;SDS011;44845;51.444;7.460;2023-05-14T08:27:51;2.42;;;1.55;;
59054;SDS011;44845;51.444;7.460;2023-05-14T08:30:18;1.90;;;1.80;;
59054;SDS011;44845;51.444;7.460;2023-05-14T08:32:43;1.55;;;1.45;;
59054;SDS011;44845;51.444;7.460;2023-05-14T08:35:09;5.85;;;1.60;;
59054;SDS011;44845;51.444;7.460;2023-05-14T08:37:35;1.60;;;1.50;;
59054;SDS011;44845;51.444;7.460;2023-05-14T08:40:00;1.30;;;1.20;;
59054;SDS011;44845;51.444;7.460;2023-05-14T08:42:25;1.40;;;1.30;;
59054;SDS011;44845;51.444;7.460;2023-05-14T08:44:57;1.17;;;1.08;;
59054;SDS011;44845;51.444;7.460;2023-05-14T08:47:26;1.30;;;1.20;;
59054;SDS011;44845;51.444;7.460;2023-05-14T08:49:59;2.92;;;1.10;;
59054;SDS011;44845;51.444;7.460;2023-05-14T08:52:28;2.20;;;1.50;;
59054;SDS011;44845;51.444;7.460;2023-05-14T08:54:53;1.92;;;1.30;;
59054;SDS011;44845;51.444;7.460;2023-05-14T08:57:19;3.70;;;1.38;;
59054;SDS011;44845;51.444;7.460;2023-05-14T08:59:48;2.55;;;1.30;;
59054;SDS011;44845;51.444;7.460;2023-05-14T09:02:14;1.27;;;1.17;;
59054;SDS011;44845;51.444;7.460;2023-05-14T09:04:41;1.35;;;1.25;;
59054;SDS011;44845;51.444;7.460;2023-05-14T09:07:07;1.10;;;1.00;;
59054;SDS011;44845;51.444;7.460;2023-05-14T09:09:33;1.27;;;1.17;;
59054;SDS011;44845;51.444;7.460;2023-05-14T09:11:59;5.32;;;1.40;;
59054;SDS011;44845;51.444;7.460;2023-05-14T09:14:25;1.70;;;1.20;;
59054;SDS011;44845;51.444;7.460;2023-05-14T09:16:50;1.98;;;0.93;;
59054;SDS011;44845;51.444;7.460;2023-05-14T09:19:16;1.05;;;1.05;;
59054;SDS011;44845;51.444;7.460;2023-05-14T09:21:45;1.83;;;1.40;;
59054;SDS011;44845;51.444;7.460;2023-05-14T09:24:19;1.08;;;1.08;;
59054;SDS011;44845;51.444;7.460;2023-05-14T09:26:48;1.48;;;1.30;;
59054;SDS011;44845;51.444;7.460;2023-05-14T09:29:17;1.02;;;0.98;;
59054;SDS011;44845;51.444;7.460;2023-05-14T09:31:42;2.35;;;1.10;;
59054;SDS011;44845;51.444;7.460;2023-05-14T09:34:08;1.67;;;1.10;;
59054;SDS011;44845;51.444;7.460;2023-05-14T09:36:33;1.75;;;1.20;;
59054;SDS011;44845;51.444;7.460;2023-05-14T09:38:59;2.22;;;1.38;;
59054;SDS011;44845;51.444;7.460;2023-05-14T09:41:27;1.60;;;1.30;;
59054;SDS011;44845;51.444;7.460;2023-05-14T09:43:52;1.75;;;1.65;;
59054;SDS011;44845;51.444;7.460;2023-05-14T09:46:18;1.70;;;1.60;;
59054;SDS011;44845;51.444;7.460;2023-05-14T09:48:44;1.80;;;1.70;;
59054;SDS011;44845;51.444;7.460;2023-05-14T09:51:09;3.55;;;1.50;;
59054;SDS011;44845;51.444;7.460;2023-05-14T09:53:35;1.88;;;1.52;;
59054;SDS011;44845;51.444;7.460;2023-05-14T09:56:01;1.38;;;1.27;;
59054;SDS011;44845;51.444;7.460;2023-05-14T09:58:26;1.40;;;1.30;;
59054;SDS011;44845;51.444;7.460;2023-05-14T10:00:53;2.17;;;1.85;;
59054;SDS011;44845;51.444;7.460;2023-05-14T10:03:21;2.78;;;1.35;;
59054;SDS011;44845;51.444;7.460;2023-05-14T10:05:48;1.58;;;1.48;;
59054;SDS011;44845;51.444;7.460;2023-05-14T10:08:19;3.17;;;1.50;;
59054;SDS011;44845;51.444;7.460;2023-05-14T10:10:49;4.07;;;1.37;;
59054;SDS011;44845;51.444;7.460;2023-05-14T10:13:17;1.80;;;1.70;;
59054;SDS011;44845;51.444;7.460;2023-05-14T10:15:48;2.45;;;1.60;;
59054;SDS011;44845;51.444;7.460;2023-05-14T10:18:19;2.53;;;1.50;;
59054;SDS011;44845;51.444;7.460;2023-05-14T10:20:49;1.83;;;1.70;;
59054;SDS011;44845;51.444;7.460;2023-05-14T10:23:20;1.70;;;1.60;;
59054;SDS011;44845;51.444;7.460;2023-05-14T10:25:45;1.88;;;1.77;;
59054;SDS011;44845;51.444;7.460;2023-05-14T10:28:11;2.38;;;1.95;;
59054;SDS011;44845;51.444;7.460;2023-05-14T10:30:42;1.70;;;1.60;;
59054;SDS011;44845;51.444;7.460;2023-05-14T10:33:10;1.85;;;1.73;;
59054;SDS011;44845;51.444;7.460;2023-05-14T10:35:49;1.85;;;1.75;;
59054;SDS011;44845;51.444;7.460;2023-05-14T10:38:29;2.03;;;1.92;;
59054;SDS011;44845;51.444;7.460;2023-05-14T10:41:00;2.15;;;1.77;;
59054;SDS011;44845;51.444;7.460;2023-05-14T10:43:27;3.65;;;1.90;;
59054;SDS011;44845;51.444;7.460;2023-05-14T10:45:54;2.83;;;2.13;;
59054;SDS011;44845;51.444;7.460;2023-05-14T10:48:22;2.80;;;1.83;;
59054;SDS011;44845;51.444;7.460;2023-05-14T10:50:51;2.17;;;1.58;;
59054;SDS011;44845;51.444;7.460;2023-05-14T10:53:17;2.63;;;1.70;;
59054;SDS011;44845;51.444;7.460;2023-05-14T10:55:43;1.40;;;1.30;;
59054;SDS011;44845;51.444;7.460;2023-05-14T10:58:09;4.47;;;1.92;;
59054;SDS011;44845;51.444;7.460;2023-05-14T11:00:35;2.85;;;1.70;;
59054;SDS011;44845;51.444;7.460;2023-05-14T11:03:02;1.60;;;1.50;;
59054;SDS011;44845;51.444;7.460;2023-05-14T11:05:29;2.20;;;2.00;;
59054;SDS011;44845;51.444;7.460;2023-05-14T11:07:56;3.47;;;2.00;;
59054;SDS011;44845;51.444;7.460;2023-05-14T11:10:23;2.25;;;1.83;;
59054;SDS011;44845;51.444;7.460;2023-05-14T11:12:54;3.20;;;1.70;;
59054;SDS011;44845;51.444;7.460;2023-05-14T11:15:21;1.52;;;1.42;;
59054;SDS011;44845;51.444;7.460;2023-05-14T11:17:49;2.85;;;1.80;;
59054;SDS011;44845;51.444;7.460;2023-05-14T11:20:15;4.20;;;1.60;;
59054;SDS011;44845;51.444;7.460;2023-05-14T11:22:41;1.48;;;1.38;;
59054;SDS011;44845;51.444;7.460;2023-05-14T11:25:08;4.30;;;1.42;;
59054;SDS011;44845;51.444;7.460;2023-05-14T11:27:35;1.40;;;1.30;;
59054;SDS011;44845;51.444;7.460;2023-05-14T11:30:01;2.28;;;1.73;;
59054;SDS011;44845;51.444;7.460;2023-05-14T11:32:28;1.55;;;1.30;;
59054;SDS011;44845;51.444;7.460;2023-05-14T11:34:55;1.73;;;1.50;;
59054;SDS011;44845;51.444;7.460;2023-05-14T11:37:21;1.83;;;1.63;;
59054;SDS011;44845;51.444;7.460;2023-05-14T11:39:47;2.03;;;1.83;;
59054;SDS011;44845;51.444;7.460;2023-05-14T11:42:14;2.33;;;1.98;;
59054;SDS011;44845;51.444;7.460;2023-05-14T11:44:42;2.63;;;1.77;;
59054;SDS011;44845;51.444;7.460;2023-05-14T11:47:09;4.13;;;1.90;;
59054;SDS011;44845;51.444;7.460;2023-05-14T11:49:35;4.95;;;2.67;;
59054;SDS011;44845;51.444;7.460;2023-05-14T11:52:02;1.95;;;1.73;;
59054;SDS011;44845;51.444;7.460;2023-05-14T11:54:29;2.47;;;1.70;;
59054;SDS011;44845;51.444;7.460;2023-05-14T11:56:55;2.10;;;1.90;;
59054;SDS011;44845;51.444;7.460;2023-05-14T11:59:25;1.63;;;1.45;;
59054;SDS011;44845;51.444;7.460;2023-05-14T12:01:52;1.88;;;1.70;;
59054;SDS011;44845;51.444;7.460;2023-05-14T12:04:18;3.60;;;1.60;;
59054;SDS011;44845;51.444;7.460;2023-05-14T12:06:47;2.25;;;1.60;;
59054;SDS011;44845;51.444;7.460;2023-05-14T12:09:17;1.30;;;1.20;;
59054;SDS011;44845;51.444;7.460;2023-05-14T12:11:48;2.30;;;2.08;;
59054;SDS011;44845;51.444;7.460;2023-05-14T12:14:15;2.13;;;1.77;;
59054;SDS011;44845;51.444;7.460;2023-05-14T12:16:45;1.42;;;1.20;;
59054;SDS011;44845;51.444;7.460;2023-05-14T12:19:12;2.08;;;1.65;;
59054;SDS011;44845;51.444;7.460;2023-05-14T12:21:39;2.05;;;1.65;;
59054;SDS011;44845;51.444;7.460;2023-05-14T12:24:10;1.92;;;1.38;;
59054;SDS011;44845;51.444;7.460;2023-05-14T12:26:37;1.33;;;1.23;;
59054;SDS011;44845;51.444;7.460;2023-05-14T12:29:03;2.17;;;1.50;;
59054;SDS011;44845;51.444;7.460;2023-05-14T12:31:31;1.27;;;1.20;;
59054;SDS011;44845;51.444;7.460;2023-05-14T12:33:58;1.42;;;1.33;;
59054;SDS011;44845;51.444;7.460;2023-05-14T12:36:24;1.50;;;1.40;;
59054;SDS011;44845;51.444;7.460;2023-05-14T12:38:50;2.38;;;1.30;;
59054;SDS011;44845;51.444;7.460;2023-05-14T12:41:20;1.20;;;1.20;;
59054;SDS011;44845;51.444;7.460;2023-05-14T12:43:46;2.05;;;1.40;;
59054;SDS011;44845;51.444;7.460;2023-05-14T12:46:12;1.92;;;1.40;;
59054;SDS011;44845;51.444;7.460;2023-05-14T12:48:37;1.45;;;1.35;;
59054;SDS011;44845;51.444;7.460;2023-05-14T12:51:02;2.50;;;1.60;;
59054;SDS011;44845;51.444;7.460;2023-05-14T12:53:28;1.70;;;1.60;;
59054;SDS011;44845;51.444;7.460;2023-05-14T12:55:53;1.75;;;1.23;;
59054;SDS011;44845;51.444;7.460;2023-05-14T12:58:19;1.35;;;1.25;;
59054;SDS011;44845;51.444;7.460;2023-05-14T13:00:44;1.40;;;1.20;;
59054;SDS011;44845;51.444;7.460;2023-05-14T13:03:09;0.90;;;0.90;;
59054;SDS011;44845;51.444;7.460;2023-05-14T13:05:35;1.20;;;1.10;;
59054;SDS011;44845;51.444;7.460;2023-05-14T13:08:00;1.10;;;1.00;;
59054;SDS011;44845;51.444;7.460;2023-05-14T13:10:27;1.10;;;1.10;;
59054;SDS011;44845;51.444;7.460;2023-05-14T13:12:53;3.50;;;1.20;;
59054;SDS011;44845;51.444;7.460;2023-05-14T13:15:20;1.23;;;0.75;;
59054;SDS011;44845;51.444;7.460;2023-05-14T13:17:46;0.70;;;0.70;;
59054;SDS011;44845;51.444;7.460;2023-05-14T13:20:12;0.93;;;0.90;;
59054;SDS011;44845;51.444;7.460;2023-05-14T13:22:37;1.20;;;1.10;;
59054;SDS011;44845;51.444;7.460;2023-05-14T13:25:03;1.27;;;1.17;;
59054;SDS011;44845;51.444;7.460;2023-05-14T13:27:28;1.67;;;1.05;;
59054;SDS011;44845;51.444;7.460;2023-05-14T13:29:54;1.00;;;0.90;;
59054;SDS011;44845;51.444;7.460;2023-05-14T13:32:19;2.17;;;1.00;;
59054;SDS011;44845;51.444;7.460;2023-05-14T13:34:45;0.70;;;0.70;;
59054;SDS011;44845;51.444;7.460;2023-05-14T13:37:10;0.90;;;0.70;;
59054;SDS011;44845;51.444;7.460;2023-05-14T13:39:35;0.82;;;0.82;;
59054;SDS011;44845;51.444;7.460;2023-05-14T13:42:01;0.73;;;0.73;;
59054;SDS011;44845;51.444;7.460;2023-05-14T13:44:26;0.60;;;0.50;;
59054;SDS011;44845;51.444;7.460;2023-05-14T13:46:51;1.17;;;0.70;;
59054;SDS011;44845;51.444;7.460;2023-05-14T13:49:17;0.68;;;0.68;;
59054;SDS011;44845;51.444;7.460;2023-05-14T13:51:42;1.20;;;1.00;;
59054;SDS011;44845;51.444;7.460;2023-05-14T13:54:08;1.00;;;1.00;;
59054;SDS011;44845;51.444;7.460;2023-05-14T13:56:33;2.22;;;0.98;;
59054;SDS011;44845;51.444;7.460;2023-05-14T13:58:59;0.80;;;0.80;;
59054;SDS011;44845;51.444;7.460;2023-05-14T14:01:24;0.90;;;0.90;;
59054;SDS011;44845;51.444;7.460;2023-05-14T14:03:50;1.10;;;1.00;;
59054;SDS011;44845;51.444;7.460;2023-05-14T14:06:15;1.33;;;1.23;;
59054;SDS011;44845;51.444;7.460;2023-05-14T14:08:40;1.05;;;1.05;;
59054;SDS011;44845;51.444;7.460;2023-05-14T14:11:06;2.05;;;1.20;;
59054;SDS011;44845;51.444;7.460;2023-05-14T14:13:31;1.45;;;1.35;;
59054;SDS011;44845;51.444;7.460;2023-05-14T14:15:56;1.98;;;1.40;;
59054;SDS011;44845;51.444;7.460;2023-05-14T14:18:22;1.33;;;0.98;;
59054;SDS011;44845;51.444;7.460;2023-05-14T14:20:47;0.90;;;0.90;;
59054;SDS011;44845;51.444;7.460;2023-05-14T14:23:13;2.08;;;1.20;;
59054;SDS011;44845;51.444;7.460;2023-05-14T14:25:38;2.85;;;1.35;;
59054;SDS011;44845;51.444;7.460;2023-05-14T14:28:03;2.63;;;1.00;;
59054;SDS011;44845;51.444;7.460;2023-05-14T14:30:29;0.70;;;0.70;;
59054;SDS011;44845;51.444;7.460;2023-05-14T14:32:54;0.88;;;0.82;;
59054;SDS011;44845;51.444;7.460;2023-05-14T14:35:20;1.52;;;0.88;;
59054;SDS011;44845;51.444;7.460;2023-05-14T14:37:45;1.30;;;1.20;;
59054;SDS011;44845;51.444;7.460;2023-05-14T14:40:15;3.00;;;0.70;;
59054;SDS011;44845;51.444;7.460;2023-05-14T14:42:41;1.45;;;1.10;;
59054;SDS011;44845;51.444;7.460;2023-05-14T14:45:07;1.50;;;0.90;;